sensor_id;sensor_type;location;lat;lon;timestamp;pressure;altitude;pressure_sealevel;temperature;humidity
68301;BME280;55146;47.468;18.806;2023-02-15T00:02:24;101774.97;;;-0.16;81.61
68301;BME280;55146;47.468;18.806;2023-02-15T00:04:49;101779.53;;;-0.16;81.54
68301;BME280;55146;47.468;18.806;2023-02-15T00:07:16;101771.25;;;-0.15;81.43
68301;BME280;55146;47.468;18.806;2023-02-15T00:09:42;101778.66;;;-0.17;81.26
68301;BME280;55146;47.468;18.806;2023-02-15T00:12:09;101781.06;;;-0.14;81.21
68301;BME280;55146;47.468;18.806;2023-02-15T00:14:34;101786.13;;;-0.19;81.50
68301;BME280;55146;47.468;18.806;2023-02-15T00:17:00;101783.03;;;-0.24;81.65
68301;BME280;55146;47.468;18.806;2023-02-15T00:19:25;101796.19;;;-0.29;81.90
68301;BME280;55146;47.468;18.806;2023-02-15T00:21:51;101781.53;;;-0.26;82.00
68301;BME280;55146;47.468;18.806;2023-02-15T00:24:18;101788.44;;;-0.24;81.85
68301;BME280;55146;47.468;18.806;2023-02-15T00:26:45;101787.41;;;-0.31;81.67
68301;BME280;55146;47.468;18.806;2023-02-15T00:29:12;101785.72;;;-0.32;81.64
68301;BME280;55146;47.468;18.806;2023-02-15T00:31:37;101785.03;;;-0.34;81.73
68301;BME280;55146;47.468;18.806;2023-02-15T00:34:09;101778.12;;;-0.28;81.61
68301;BME280;55146;47.468;18.806;2023-02-15T00:36:36;101781.47;;;-0.34;81.85
68301;BME280;55146;47.468;18.806;2023-02-15T00:39:01;101782.31;;;-0.34;82.01
68301;BME280;55146;47.468;18.806;2023-02-15T00:41:27;101792.13;;;-0.33;81.91
68301;BME280;55146;47.468;18.806;2023-02-15T00:43:52;101783.47;;;-0.36;81.46
68301;BME280;55146;47.468;18.806;2023-02-15T00:46:18;101776.56;;;-0.39;81.29
68301;BME280;55146;47.468;18.806;2023-02-15T00:48:43;101776.56;;;-0.39;81.37
68301;BME280;55146;47.468;18.806;2023-02-15T00:51:08;101785.97;;;-0.43;81.48
68301;BME280;55146;47.468;18.806;2023-02-15T00:53:34;101778.22;;;-0.46;81.48
68301;BME280;55146;47.468;18.806;2023-02-15T00:55:59;101771.75;;;-0.53;81.44
68301;BME280;55146;47.468;18.806;2023-02-15T00:58:24;101775.81;;;-0.49;81.48
68301;BME280;55146;47.468;18.806;2023-02-15T01:00:50;101777.31;;;-0.55;81.49
68301;BME280;55146;47.468;18.806;2023-02-15T01:03:17;101772.72;;;-0.62;81.60
68301;BME280;55146;47.468;18.806;2023-02-15T01:05:44;101778.28;;;-0.64;81.81
68301;BME280;55146;47.468;18.806;2023-02-15T01:08:09;101773.88;;;-0.65;82.00
68301;BME280;55146;47.468;18.806;2023-02-15T01:10:35;101770.28;;;-0.73;82.36
68301;BME280;55146;47.468;18.806;2023-02-15T01:13:02;101774.00;;;-0.74;82.48
68301;BME280;55146;47.468;18.806;2023-02-15T01:15:27;101768.59;;;-0.74;82.23
68301;BME280;55146;47.468;18.806;2023-02-15T01:17:53;101770.47;;;-0.75;82.10
68301;BME280;55146;47.468;18.806;2023-02-15T01:20:24;101770.13;;;-0.72;82.00
68301;BME280;55146;47.468;18.806;2023-02-15T01:22:50;101771.94;;;-0.80;82.09
68301;BME280;55146;47.468;18.806;2023-02-15T01:25:20;101772.75;;;-0.80;82.19
68301;BME280;55146;47.468;18.806;2023-02-15T01:27:47;101769.53;;;-0.84;81.99
68301;BME280;55146;47.468;18.806;2023-02-15T01:30:14;101764.12;;;-0.84;82.09
68301;BME280;55146;47.468;18.806;2023-02-15T01:32:40;101764.84;;;-0.82;81.98
68301;BME280;55146;47.468;18.806;2023-02-15T01:35:06;101750.56;;;-0.92;82.43
68301;BME280;55146;47.468;18.806;2023-02-15T01:37:33;101749.72;;;-0.92;82.58
68301;BME280;55146;47.468;18.806;2023-02-15T01:39:58;101751.13;;;-0.88;82.21
68301;BME280;55146;47.468;18.806;2023-02-15T01:42:26;101746.25;;;-0.85;81.98
68301;BME280;55146;47.468;18.806;2023-02-15T01:44:57;101746.59;;;-0.79;82.03
68301;BME280;55146;47.468;18.806;2023-02-15T01:47:43;101739.13;;;-0.86;81.61
68301;BME280;55146;47.468;18.806;2023-02-15T01:52:48;101745.56;;;-0.87;81.48
68301;BME280;55146;47.468;18.806;2023-02-15T01:55:15;101745.34;;;-0.93;81.90
68301;BME280;55146;47.468;18.806;2023-02-15T01:57:42;101737.72;;;-0.98;82.10
68301;BME280;55146;47.468;18.806;2023-02-15T02:00:09;101734.84;;;-0.96;82.27
68301;BME280;55146;47.468;18.806;2023-02-15T02:02:34;101732.28;;;-1.06;82.26
68301;BME280;55146;47.468;18.806;2023-02-15T02:05:02;101733.94;;;-1.05;82.14
68301;BME280;55146;47.468;18.806;2023-02-15T02:07:34;101730.44;;;-1.05;82.41
68301;BME280;55146;47.468;18.806;2023-02-15T02:10:02;101726.53;;;-1.03;82.38
68301;BME280;55146;47.468;18.806;2023-02-15T02:12:29;101735.97;;;-1.07;82.36
68301;BME280;55146;47.468;18.806;2023-02-15T02:14:55;101729.72;;;-1.07;82.11
68301;BME280;55146;47.468;18.806;2023-02-15T02:45:08;101729.06;;;-1.27;81.85
68301;BME280;55146;47.468;18.806;2023-02-15T02:47:40;101729.19;;;-1.37;82.58
68301;BME280;55146;47.468;18.806;2023-02-15T02:50:14;101731.69;;;-1.35;82.38
68301;BME280;55146;47.468;18.806;2023-02-15T02:52:49;101725.78;;;-1.39;82.58
68301;BME280;55146;47.468;18.806;2023-02-15T02:55:29;101732.19;;;-1.40;82.74
68301;BME280;55146;47.468;18.806;2023-02-15T03:03:20;101733.81;;;-1.47;82.85
68301;BME280;55146;47.468;18.806;2023-02-15T03:05:51;101731.44;;;-1.50;82.70
68301;BME280;55146;47.468;18.806;2023-02-15T03:08:19;101730.59;;;-1.50;82.67
68301;BME280;55146;47.468;18.806;2023-02-15T03:10:52;101733.81;;;-1.47;82.66
68301;BME280;55146;47.468;18.806;2023-02-15T03:13:18;101741.03;;;-1.47;82.57
68301;BME280;55146;47.468;18.806;2023-02-15T03:15:45;101732.44;;;-1.51;82.43
68301;BME280;55146;47.468;18.806;2023-02-15T03:18:38;101725.09;;;-1.58;82.77
68301;BME280;55146;47.468;18.806;2023-02-15T03:21:07;101728.28;;;-1.63;83.00
68301;BME280;55146;47.468;18.806;2023-02-15T03:23:35;101727.91;;;-1.68;83.11
68301;BME280;55146;47.468;18.806;2023-02-15T03:26:05;101733.81;;;-1.65;83.09
68301;BME280;55146;47.468;18.806;2023-02-15T03:28:43;101736.91;;;-1.59;82.83
68301;BME280;55146;47.468;18.806;2023-02-15T03:31:09;101737.69;;;-1.67;82.83
68301;BME280;55146;47.468;18.806;2023-02-15T03:33:44;101747.31;;;-1.65;82.82
68301;BME280;55146;47.468;18.806;2023-02-15T03:36:34;101742.28;;;-1.59;82.74
68301;BME280;55146;47.468;18.806;2023-02-15T03:39:15;101742.25;;;-1.68;82.44
68301;BME280;55146;47.468;18.806;2023-02-15T03:44:31;101728.66;;;-1.76;82.11
68301;BME280;55146;47.468;18.806;2023-02-15T03:47:05;101735.75;;;-1.75;82.30
68301;BME280;55146;47.468;18.806;2023-02-15T03:49:38;101739.44;;;-1.76;82.25
68301;BME280;55146;47.468;18.806;2023-02-15T03:52:06;101729.81;;;-1.78;82.26
68301;BME280;55146;47.468;18.806;2023-02-15T03:54:34;101733.53;;;-1.79;82.36
68301;BME280;55146;47.468;18.806;2023-02-15T04:00:00;101738.13;;;-1.72;82.31
68301;BME280;55146;47.468;18.806;2023-02-15T04:02:57;101743.47;;;-1.80;82.57
68301;BME280;55146;47.468;18.806;2023-02-15T04:05:26;101741.44;;;-1.78;82.38
68301;BME280;55146;47.468;18.806;2023-02-15T04:07:51;101743.53;;;-1.89;82.50
68301;BME280;55146;47.468;18.806;2023-02-15T04:10:16;101736.91;;;-1.95;82.59
68301;BME280;55146;47.468;18.806;2023-02-15T04:13:01;101737.28;;;-1.90;82.52
68301;BME280;55146;47.468;18.806;2023-02-15T04:15:26;101738.44;;;-1.92;82.33
68301;BME280;55146;47.468;18.806;2023-02-15T04:18:10;101737.38;;;-1.99;82.90
68301;BME280;55146;47.468;18.806;2023-02-15T04:20:36;101739.22;;;-2.00;83.13
68301;BME280;55146;47.468;18.806;2023-02-15T04:23:20;101739.75;;;-1.96;83.06
68301;BME280;55146;47.468;18.806;2023-02-15T04:26:04;101745.59;;;-2.01;82.87
68301;BME280;55146;47.468;18.806;2023-02-15T04:28:30;101744.81;;;-2.11;82.90
68301;BME280;55146;47.468;18.806;2023-02-15T04:30:55;101742.41;;;-2.14;83.27
68301;BME280;55146;47.468;18.806;2023-02-15T04:33:20;101739.19;;;-2.18;83.09
68301;BME280;55146;47.468;18.806;2023-02-15T04:35:46;101740.28;;;-2.11;82.77
68301;BME280;55146;47.468;18.806;2023-02-15T04:38:11;101737.03;;;-2.14;82.72
68301;BME280;55146;47.468;18.806;2023-02-15T04:40:37;101747.19;;;-2.08;82.62
68301;BME280;55146;47.468;18.806;2023-02-15T04:43:02;101744.97;;;-2.13;82.85
68301;BME280;55146;47.468;18.806;2023-02-15T04:45:27;101743.13;;;-2.12;82.91
68301;BME280;55146;47.468;18.806;2023-02-15T04:47:53;101748.63;;;-2.04;82.80
68301;BME280;55146;47.468;18.806;2023-02-15T04:50:19;101745.22;;;-2.06;82.58
68301;BME280;55146;47.468;18.806;2023-02-15T04:52:44;101742.13;;;-2.11;82.19
68301;BME280;55146;47.468;18.806;2023-02-15T04:55:09;101741.50;;;-2.23;82.54
68301;BME280;55146;47.468;18.806;2023-02-15T04:57:35;101748.41;;;-2.20;82.48
68301;BME280;55146;47.468;18.806;2023-02-15T05:00:00;101747.50;;;-2.11;82.51
68301;BME280;55146;47.468;18.806;2023-02-15T05:02:26;101745.69;;;-2.11;82.13
68301;BME280;55146;47.468;18.806;2023-02-15T05:04:51;101743.25;;;-2.14;82.01
68301;BME280;55146;47.468;18.806;2023-02-15T05:07:16;101742.03;;;-2.19;82.12
68301;BME280;55146;47.468;18.806;2023-02-15T05:09:42;101737.88;;;-2.14;82.42
68301;BME280;55146;47.468;18.806;2023-02-15T05:12:08;101734.19;;;-2.13;82.43
68301;BME280;55146;47.468;18.806;2023-02-15T05:14:33;101742.03;;;-2.19;82.52
68301;BME280;55146;47.468;18.806;2023-02-15T05:16:58;101744.19;;;-2.23;82.60
68301;BME280;55146;47.468;18.806;2023-02-15T05:19:26;101742.78;;;-2.27;82.37
68301;BME280;55146;47.468;18.806;2023-02-15T05:21:52;101757.41;;;-2.29;82.81
68301;BME280;55146;47.468;18.806;2023-02-15T05:24:17;101756.38;;;-2.28;82.93
68301;BME280;55146;47.468;18.806;2023-02-15T05:27:01;101751.59;;;-2.34;82.73
68301;BME280;55146;47.468;18.806;2023-02-15T05:29:45;101759.84;;;-2.36;82.77
68301;BME280;55146;47.468;18.806;2023-02-15T05:32:13;101762.84;;;-2.39;82.95
68301;BME280;55146;47.468;18.806;2023-02-15T05:34:38;101763.44;;;-2.45;82.96
68301;BME280;55146;47.468;18.806;2023-02-15T05:37:03;101764.16;;;-2.53;83.53
68301;BME280;55146;47.468;18.806;2023-02-15T05:39:29;101771.38;;;-2.43;83.54
68301;BME280;55146;47.468;18.806;2023-02-15T05:41:54;101767.03;;;-2.54;83.35
68301;BME280;55146;47.468;18.806;2023-02-15T05:44:19;101767.16;;;-2.56;83.17
68301;BME280;55146;47.468;18.806;2023-02-15T05:46:45;101767.12;;;-2.46;83.22
68301;BME280;55146;47.468;18.806;2023-02-15T05:49:10;101768.69;;;-2.43;82.98
68301;BME280;55146;47.468;18.806;2023-02-15T05:51:35;101775.31;;;-2.38;82.62
68301;BME280;55146;47.468;18.806;2023-02-15T05:54:01;101777.88;;;-2.36;82.76
68301;BME280;55146;47.468;18.806;2023-02-15T05:56:26;101782.00;;;-2.42;82.76
68301;BME280;55146;47.468;18.806;2023-02-15T05:58:52;101780.00;;;-2.40;82.86
68301;BME280;55146;47.468;18.806;2023-02-15T06:01:18;101787.34;;;-2.32;82.59
68301;BME280;55146;47.468;18.806;2023-02-15T06:03:46;101773.47;;;-2.37;83.07
68301;BME280;55146;47.468;18.806;2023-02-15T06:06:11;101775.84;;;-2.34;83.23
68301;BME280;55146;47.468;18.806;2023-02-15T06:08:37;101778.31;;;-2.41;82.85
68301;BME280;55146;47.468;18.806;2023-02-15T06:11:03;101780.03;;;-2.50;82.95
68301;BME280;55146;47.468;18.806;2023-02-15T06:13:29;101782.19;;;-2.53;83.14
68301;BME280;55146;47.468;18.806;2023-02-15T06:15:55;101787.16;;;-2.58;83.39
68301;BME280;55146;47.468;18.806;2023-02-15T06:18:20;101784.03;;;-2.54;83.32
68301;BME280;55146;47.468;18.806;2023-02-15T06:20:46;101787.59;;;-2.53;83.49
68301;BME280;55146;47.468;18.806;2023-02-15T06:23:12;101785.56;;;-2.51;83.70
68301;BME280;55146;47.468;18.806;2023-02-15T06:25:37;101789.25;;;-2.42;83.58
68301;BME280;55146;47.468;18.806;2023-02-15T06:28:03;101787.09;;;-2.39;83.58
68301;BME280;55146;47.468;18.806;2023-02-15T06:30:28;101781.50;;;-2.28;83.77
68301;BME280;55146;47.468;18.806;2023-02-15T06:32:54;101784.16;;;-2.18;84.11
68301;BME280;55146;47.468;18.806;2023-02-15T06:35:19;101790.25;;;-2.16;83.76
68301;BME280;55146;47.468;18.806;2023-02-15T06:37:45;101789.66;;;-2.10;83.86
68301;BME280;55146;47.468;18.806;2023-02-15T06:40:11;101785.50;;;-2.05;84.05
68301;BME280;55146;47.468;18.806;2023-02-15T06:42:37;101794.91;;;-1.91;84.05
68301;BME280;55146;47.468;18.806;2023-02-15T06:45:03;101794.16;;;-1.83;83.97
68301;BME280;55146;47.468;18.806;2023-02-15T06:47:29;101798.94;;;-1.77;84.02
68301;BME280;55146;47.468;18.806;2023-02-15T06:49:54;101791.94;;;-1.52;83.58
68301;BME280;55146;47.468;18.806;2023-02-15T06:52:19;101792.78;;;-1.34;83.09
68301;BME280;55146;47.468;18.806;2023-02-15T06:54:45;101793.37;;;-1.23;82.74
68301;BME280;55146;47.468;18.806;2023-02-15T06:57:10;101792.53;;;-1.05;82.34
68301;BME280;55146;47.468;18.806;2023-02-15T06:59:36;101793.56;;;-0.80;81.63
68301;BME280;55146;47.468;18.806;2023-02-15T07:02:01;101800.91;;;-0.65;80.33
68301;BME280;55146;47.468;18.806;2023-02-15T07:04:26;101798.12;;;-0.47;79.97
68301;BME280;55146;47.468;18.806;2023-02-15T07:06:54;101795.38;;;-0.21;79.67
68301;BME280;55146;47.468;18.806;2023-02-15T07:09:20;101791.44;;;0.07;78.58
68301;BME280;55146;47.468;18.806;2023-02-15T07:11:45;101797.94;;;0.30;77.90
68301;BME280;55146;47.468;18.806;2023-02-15T07:14:29;101796.63;;;0.59;76.64
68301;BME280;55146;47.468;18.806;2023-02-15T07:16:55;101789.84;;;0.87;74.86
68301;BME280;55146;47.468;18.806;2023-02-15T07:19:20;101793.44;;;1.04;74.37
68301;BME280;55146;47.468;18.806;2023-02-15T07:21:45;101799.84;;;1.19;74.12
68301;BME280;55146;47.468;18.806;2023-02-15T07:24:11;101791.19;;;1.23;74.33
68301;BME280;55146;47.468;18.806;2023-02-15T07:26:36;101787.59;;;1.39;73.73
68301;BME280;55146;47.468;18.806;2023-02-15T07:29:02;101790.25;;;1.55;73.59
68301;BME280;55146;47.468;18.806;2023-02-15T07:31:27;101791.56;;;1.76;73.60
68301;BME280;55146;47.468;18.806;2023-02-15T07:33:53;101788.91;;;1.98;72.90
68301;BME280;55146;47.468;18.806;2023-02-15T07:36:18;101785.59;;;2.19;72.09
68301;BME280;55146;47.468;18.806;2023-02-15T07:38:43;101795.00;;;2.39;71.52
68301;BME280;55146;47.468;18.806;2023-02-15T07:41:11;101789.09;;;2.59;71.23
68301;BME280;55146;47.468;18.806;2023-02-15T07:43:39;101786.06;;;2.76;70.39
68301;BME280;55146;47.468;18.806;2023-02-15T07:46:08;101786.50;;;2.88;70.28
68301;BME280;55146;47.468;18.806;2023-02-15T07:48:35;101784.12;;;3.08;70.23
68301;BME280;55146;47.468;18.806;2023-02-15T07:51:06;101779.72;;;3.21;69.61
68301;BME280;55146;47.468;18.806;2023-02-15T07:53:32;101783.03;;;3.46;68.45
68301;BME280;55146;47.468;18.806;2023-02-15T07:56:03;101782.97;;;3.69;67.63
68301;BME280;55146;47.468;18.806;2023-02-15T07:58:29;101783.16;;;3.82;67.91
68301;BME280;55146;47.468;18.806;2023-02-15T08:01:14;101789.91;;;3.86;67.83
68301;BME280;55146;47.468;18.806;2023-02-15T08:03:39;101783.31;;;3.95;67.84
68301;BME280;55146;47.468;18.806;2023-02-15T08:06:05;101775.53;;;4.07;67.85
68301;BME280;55146;47.468;18.806;2023-02-15T08:08:33;101774.06;;;4.26;67.74
68301;BME280;55146;47.468;18.806;2023-02-15T08:11:03;101778.53;;;4.33;68.26
68301;BME280;55146;47.468;18.806;2023-02-15T08:13:49;101768.87;;;4.52;68.10
68301;BME280;55146;47.468;18.806;2023-02-15T08:16:27;101767.94;;;4.60;68.32
68301;BME280;55146;47.468;18.806;2023-02-15T08:18:54;101767.09;;;4.80;67.92
68301;BME280;55146;47.468;18.806;2023-02-15T08:21:20;101761.78;;;4.94;68.15
68301;BME280;55146;47.468;18.806;2023-02-15T08:23:46;101759.13;;;5.07;68.37
68301;BME280;55146;47.468;18.806;2023-02-15T08:26:12;101756.88;;;5.10;69.77
68301;BME280;55146;47.468;18.806;2023-02-15T08:28:38;101751.16;;;5.05;69.62
68301;BME280;55146;47.468;18.806;2023-02-15T08:31:05;101757.34;;;5.20;69.92
68301;BME280;55146;47.468;18.806;2023-02-15T08:33:30;101756.38;;;5.28;69.75
68301;BME280;55146;47.468;18.806;2023-02-15T08:35:56;101754.53;;;5.35;69.85
68301;BME280;55146;47.468;18.806;2023-02-15T08:38:21;101751.09;;;5.54;69.63
68301;BME280;55146;47.468;18.806;2023-02-15T08:40:46;101748.44;;;5.67;69.05
68301;BME280;55146;47.468;18.806;2023-02-15T08:43:12;101748.03;;;5.70;69.18
68301;BME280;55146;47.468;18.806;2023-02-15T08:45:37;101751.84;;;5.76;69.61
68301;BME280;55146;47.468;18.806;2023-02-15T08:48:02;101753.53;;;5.77;69.18
68301;BME280;55146;47.468;18.806;2023-02-15T08:50:28;101748.50;;;5.81;68.64
68301;BME280;55146;47.468;18.806;2023-02-15T08:52:53;101745.81;;;5.87;69.29
68301;BME280;55146;47.468;18.806;2023-02-15T08:55:18;101751.31;;;5.94;69.84
68301;BME280;55146;47.468;18.806;2023-02-15T08:57:44;101747.19;;;6.04;68.70
68301;BME280;55146;47.468;18.806;2023-02-15T09:00:10;101743.22;;;6.14;68.27
68301;BME280;55146;47.468;18.806;2023-02-15T09:02:37;101744.31;;;6.26;68.60
68301;BME280;55146;47.468;18.806;2023-02-15T09:05:02;101742.66;;;6.38;68.12
68301;BME280;55146;47.468;18.806;2023-02-15T09:07:27;101739.97;;;6.51;67.95
68301;BME280;55146;47.468;18.806;2023-02-15T09:09:53;101738.94;;;6.59;67.43
68301;BME280;55146;47.468;18.806;2023-02-15T09:12:19;101738.09;;;6.71;67.44
68301;BME280;55146;47.468;18.806;2023-02-15T09:14:44;101733.69;;;6.83;66.85
68301;BME280;55146;47.468;18.806;2023-02-15T09:17:09;101739.78;;;6.99;66.66
68301;BME280;55146;47.468;18.806;2023-02-15T09:19:35;101741.91;;;7.03;65.94
68301;BME280;55146;47.468;18.806;2023-02-15T09:22:00;101740.62;;;7.12;65.92
68301;BME280;55146;47.468;18.806;2023-02-15T09:24:26;101740.62;;;7.25;65.60
68301;BME280;55146;47.468;18.806;2023-02-15T09:26:51;101748.81;;;7.39;65.59
68301;BME280;55146;47.468;18.806;2023-02-15T09:29:17;101741.66;;;7.44;65.20
68301;BME280;55146;47.468;18.806;2023-02-15T09:31:45;101740.34;;;7.60;65.13
68301;BME280;55146;47.468;18.806;2023-02-15T09:34:12;101738.63;;;7.72;64.20
68301;BME280;55146;47.468;18.806;2023-02-15T09:36:39;101737.50;;;7.93;64.28
68301;BME280;55146;47.468;18.806;2023-02-15T09:58:49;101701.88;;;9.43;58.47
68301;BME280;55146;47.468;18.806;2023-02-15T10:15:30;101697.47;;;10.27;59.47
68301;BME280;55146;47.468;18.806;2023-02-15T10:21:11;101700.56;;;10.48;58.11
68301;BME280;55146;47.468;18.806;2023-02-15T10:26:46;101695.44;;;10.64;58.46
68301;BME280;55146;47.468;18.806;2023-02-15T10:29:35;101701.59;;;10.77;57.57
68301;BME280;55146;47.468;18.806;2023-02-15T10:32:22;101687.84;;;10.89;57.54
68301;BME280;55146;47.468;18.806;2023-02-15T10:46:02;101681.75;;;11.33;53.39
68301;BME280;55146;47.468;18.806;2023-02-15T10:51:08;101689.16;;;11.56;52.01
68301;BME280;55146;47.468;18.806;2023-02-15T10:58:51;101670.34;;;11.77;52.14
68301;BME280;55146;47.468;18.806;2023-02-15T11:01:38;101671.97;;;11.89;52.14
68301;BME280;55146;47.468;18.806;2023-02-15T11:07:16;101661.50;;;12.03;51.61
68301;BME280;55146;47.468;18.806;2023-02-15T11:09:59;101655.25;;;12.07;50.89
68301;BME280;55146;47.468;18.806;2023-02-15T11:12:28;101654.88;;;12.15;51.56
68301;BME280;55146;47.468;18.806;2023-02-15T11:17:45;101649.72;;;12.07;51.18
68301;BME280;55146;47.468;18.806;2023-02-15T11:20:33;101640.47;;;12.13;50.36
68301;BME280;55146;47.468;18.806;2023-02-15T11:23:01;101634.28;;;12.23;50.63
68301;BME280;55146;47.468;18.806;2023-02-15T11:25:32;101632.12;;;12.25;50.73
68301;BME280;55146;47.468;18.806;2023-02-15T11:28:00;101627.22;;;12.27;50.74
68301;BME280;55146;47.468;18.806;2023-02-15T11:30:42;101623.19;;;12.35;51.14
68301;BME280;55146;47.468;18.806;2023-02-15T11:33:39;101623.47;;;12.33;49.99
68301;BME280;55146;47.468;18.806;2023-02-15T11:36:31;101619.38;;;12.07;51.00
68301;BME280;55146;47.468;18.806;2023-02-15T11:39:02;101616.47;;;12.14;51.15
68301;BME280;55146;47.468;18.806;2023-02-15T11:41:35;101606.00;;;12.16;50.41
68301;BME280;55146;47.468;18.806;2023-02-15T11:44:06;101603.91;;;12.06;50.99
68301;BME280;55146;47.468;18.806;2023-02-15T11:46:33;101594.06;;;12.10;50.20
68301;BME280;55146;47.468;18.806;2023-02-15T11:48:59;101599.44;;;11.89;50.16
68301;BME280;55146;47.468;18.806;2023-02-15T11:51:26;101602.81;;;11.91;50.07
68301;BME280;55146;47.468;18.806;2023-02-15T11:53:53;101597.13;;;11.97;49.53
68301;BME280;55146;47.468;18.806;2023-02-15T11:56:21;101592.28;;;12.04;50.82
68301;BME280;55146;47.468;18.806;2023-02-15T11:58:52;101590.47;;;12.10;50.04
68301;BME280;55146;47.468;18.806;2023-02-15T12:04:04;101594.31;;;12.09;49.50
68301;BME280;55146;47.468;18.806;2023-02-15T12:06:37;101586.88;;;11.81;50.09
68301;BME280;55146;47.468;18.806;2023-02-15T12:11:40;101588.34;;;11.72;50.51
68301;BME280;55146;47.468;18.806;2023-02-15T12:14:11;101581.16;;;11.71;50.85
68301;BME280;55146;47.468;18.806;2023-02-15T12:16:43;101576.59;;;11.77;51.12
68301;BME280;55146;47.468;18.806;2023-02-15T12:21:49;101577.94;;;12.02;49.84
68301;BME280;55146;47.468;18.806;2023-02-15T12:24:37;101572.44;;;12.19;49.46
68301;BME280;55146;47.468;18.806;2023-02-15T12:27:15;101567.59;;;12.09;49.92
68301;BME280;55146;47.468;18.806;2023-02-15T12:29:43;101565.59;;;12.22;51.45
68301;BME280;55146;47.468;18.806;2023-02-15T12:32:46;101566.06;;;12.19;48.96
68301;BME280;55146;47.468;18.806;2023-02-15T12:35:33;101562.66;;;11.83;49.75
68301;BME280;55146;47.468;18.806;2023-02-15T12:38:09;101559.56;;;11.80;49.83
68301;BME280;55146;47.468;18.806;2023-02-15T12:40:59;101555.94;;;11.79;49.59
68301;BME280;55146;47.468;18.806;2023-02-15T12:43:32;101548.72;;;11.50;50.00
68301;BME280;55146;47.468;18.806;2023-02-15T12:46:23;101559.41;;;10.83;50.97
68301;BME280;55146;47.468;18.806;2023-02-15T12:49:19;101549.31;;;11.12;51.50
68301;BME280;55146;47.468;18.806;2023-02-15T12:51:47;101542.37;;;11.09;52.09
68301;BME280;55146;47.468;18.806;2023-02-15T12:56:47;101539.94;;;11.24;50.76
68301;BME280;55146;47.468;18.806;2023-02-15T12:59:13;101537.06;;;11.31;50.91
68301;BME280;55146;47.468;18.806;2023-02-15T13:01:41;101536.22;;;11.30;50.06
68301;BME280;55146;47.468;18.806;2023-02-15T13:04:21;101530.22;;;11.33;51.10
68301;BME280;55146;47.468;18.806;2023-02-15T13:06:49;101533.81;;;11.34;50.60
68301;BME280;55146;47.468;18.806;2023-02-15T13:11:57;101528.78;;;11.71;49.39
68301;BME280;55146;47.468;18.806;2023-02-15T13:14:34;101529.59;;;11.71;49.12
68301;BME280;55146;47.468;18.806;2023-02-15T13:17:02;101520.19;;;11.56;49.98
68301;BME280;55146;47.468;18.806;2023-02-15T13:19:36;101515.47;;;11.40;50.43
68301;BME280;55146;47.468;18.806;2023-02-15T13:22:06;101514.41;;;11.41;50.81
68301;BME280;55146;47.468;18.806;2023-02-15T13:24:36;101513.75;;;11.50;50.70
68301;BME280;55146;47.468;18.806;2023-02-15T13:27:04;101509.50;;;11.31;50.22
68301;BME280;55146;47.468;18.806;2023-02-15T13:29:35;101509.91;;;11.11;50.13
68301;BME280;55146;47.468;18.806;2023-02-15T13:32:27;101505.75;;;11.09;51.03
68301;BME280;55146;47.468;18.806;2023-02-15T13:34:57;101508.63;;;11.02;51.44
68301;BME280;55146;47.468;18.806;2023-02-15T13:40:37;101514.91;;;10.86;51.83
68301;BME280;55146;47.468;18.806;2023-02-15T13:46:27;101508.81;;;10.61;52.75
68301;BME280;55146;47.468;18.806;2023-02-15T13:52:03;101498.28;;;10.46;53.51
68301;BME280;55146;47.468;18.806;2023-02-15T14:00:23;101496.25;;;10.41;53.47
68301;BME280;55146;47.468;18.806;2023-02-15T14:08:45;101497.72;;;10.02;54.83
68301;BME280;55146;47.468;18.806;2023-02-15T14:11:32;101497.00;;;10.07;54.54
68301;BME280;55146;47.468;18.806;2023-02-15T14:14:29;101487.22;;;9.99;54.10
68301;BME280;55146;47.468;18.806;2023-02-15T14:19:44;101490.41;;;9.96;54.39
68301;BME280;55146;47.468;18.806;2023-02-15T14:22:32;101493.97;;;9.85;54.78
68301;BME280;55146;47.468;18.806;2023-02-15T14:25:20;101498.09;;;9.64;55.47
68301;BME280;55146;47.468;18.806;2023-02-15T14:30:25;101484.53;;;9.51;55.82
68301;BME280;55146;47.468;18.806;2023-02-15T14:35:40;101491.22;;;9.44;56.80
68301;BME280;55146;47.468;18.806;2023-02-15T14:40:57;101490.00;;;9.40;57.43
68301;BME280;55146;47.468;18.806;2023-02-15T14:43:47;101489.62;;;9.36;57.80
68301;BME280;55146;47.468;18.806;2023-02-15T14:46:38;101480.87;;;9.27;57.98
68301;BME280;55146;47.468;18.806;2023-02-15T14:49:23;101476.00;;;9.29;57.81
68301;BME280;55146;47.468;18.806;2023-02-15T14:56:41;101468.50;;;9.07;58.86
68301;BME280;55146;47.468;18.806;2023-02-15T14:59:21;101467.25;;;9.03;59.12
68301;BME280;55146;47.468;18.806;2023-02-15T15:01:56;101466.59;;;9.07;58.89
68301;BME280;55146;47.468;18.806;2023-02-15T15:04:27;101466.81;;;9.06;59.20
68301;BME280;55146;47.468;18.806;2023-02-15T15:07:14;101472.16;;;8.82;59.77
68301;BME280;55146;47.468;18.806;2023-02-15T15:09:43;101468.81;;;8.80;59.77
68301;BME280;55146;47.468;18.806;2023-02-15T15:14:46;101465.44;;;8.60;60.62
68301;BME280;55146;47.468;18.806;2023-02-15T15:19:59;101467.97;;;8.62;60.80
68301;BME280;55146;47.468;18.806;2023-02-15T15:22:26;101461.63;;;8.61;60.92
68301;BME280;55146;47.468;18.806;2023-02-15T15:24:54;101465.66;;;8.59;60.95
68301;BME280;55146;47.468;18.806;2023-02-15T15:41:18;101453.97;;;8.27;61.81
68301;BME280;55146;47.468;18.806;2023-02-15T15:46:53;101462.47;;;8.19;62.35
68301;BME280;55146;47.468;18.806;2023-02-15T15:49:28;101463.78;;;8.09;62.64
68301;BME280;55146;47.468;18.806;2023-02-15T15:52:00;101457.09;;;8.05;62.82
68301;BME280;55146;47.468;18.806;2023-02-15T15:54:26;101454.41;;;7.99;62.99
68301;BME280;55146;47.468;18.806;2023-02-15T15:57:02;101455.31;;;7.93;63.16